sensor_id;sensor_type;location;lat;lon;timestamp;P1;durP1;ratioP1;P2;durP2;ratioP2
48849;SDS011;63210;53.370;6.770;2022-12-05T00:02:07;36.50;;;16.65;;
48849;SDS011;63210;53.370;6.770;2022-12-05T00:05:10;29.00;;;14.52;;
48849;SDS011;63210;53.370;6.770;2022-12-05T00:14:22;37.97;;;19.35;;
48849;SDS011;63210;53.370;6.770;2022-12-05T00:17:14;30.45;;;16.20;;
48849;SDS011;63210;53.370;6.770;2022-12-05T00:19:48;34.13;;;18.38;;
48849;SDS011;63210;53.370;6.770;2022-12-05T00:22:30;31.25;;;17.63;;
48849;SDS011;63210;53.370;6.770;2022-12-05T00:25:27;29.92;;;16.17;;
48849;SDS011;63210;53.370;6.770;2022-12-05T00:30:50;23.23;;;11.73;;
48849;SDS011;63210;53.370;6.770;2022-12-05T00:33:18;26.30;;;13.32;;
48849;SDS011;63210;53.370;6.770;2022-12-05T00:35:43;21.60;;;11.38;;
48849;SDS011;63210;53.370;6.770;2022-12-05T00:38:42;22.55;;;11.75;;
48849;SDS011;63210;53.370;6.770;2022-12-05T00:44:55;18.23;;;9.23;;
48849;SDS011;63210;53.370;6.770;2022-12-05T00:47:40;18.30;;;9.75;;
48849;SDS011;63210;53.370;6.770;2022-12-05T00:50:15;19.10;;;9.93;;
48849;SDS011;63210;53.370;6.770;2022-12-05T00:52:46;17.88;;;10.63;;
48849;SDS011;63210;53.370;6.770;2022-12-05T00:58:31;15.93;;;8.20;;
48849;SDS011;63210;53.370;6.770;2022-12-05T01:01:17;19.23;;;11.50;;
48849;SDS011;63210;53.370;6.770;2022-12-05T01:04:06;9.48;;;6.28;;
48849;SDS011;63210;53.370;6.770;2022-12-05T01:06:54;19.45;;;10.40;;
48849;SDS011;63210;53.370;6.770;2022-12-05T01:09:56;19.80;;;11.23;;
48849;SDS011;63210;53.370;6.770;2022-12-05T01:12:44;18.75;;;10.57;;
48849;SDS011;63210;53.370;6.770;2022-12-05T01:15:39;13.75;;;8.13;;
48849;SDS011;63210;53.370;6.770;2022-12-05T01:18:38;13.85;;;8.38;;
48849;SDS011;63210;53.370;6.770;2022-12-05T01:21:30;11.63;;;6.60;;
48849;SDS011;63210;53.370;6.770;2022-12-05T01:23:55;15.48;;;9.95;;
48849;SDS011;63210;53.370;6.770;2022-12-05T01:26:31;19.33;;;9.50;;
48849;SDS011;63210;53.370;6.770;2022-12-05T01:29:18;14.73;;;8.40;;
48849;SDS011;63210;53.370;6.770;2022-12-05T01:35:18;16.42;;;9.25;;
48849;SDS011;63210;53.370;6.770;2022-12-05T01:37:52;12.82;;;8.07;;
48849;SDS011;63210;53.370;6.770;2022-12-05T01:41:07;13.52;;;8.90;;
48849;SDS011;63210;53.370;6.770;2022-12-05T01:49:36;10.00;;;5.70;;
48849;SDS011;63210;53.370;6.770;2022-12-05T01:52:51;13.38;;;6.03;;
48849;SDS011;63210;53.370;6.770;2022-12-05T01:55:54;12.27;;;6.18;;
48849;SDS011;63210;53.370;6.770;2022-12-05T01:58:56;9.68;;;5.85;;
48849;SDS011;63210;53.370;6.770;2022-12-05T02:02:07;10.50;;;6.60;;
48849;SDS011;63210;53.370;6.770;2022-12-05T02:07:43;8.88;;;5.25;;
48849;SDS011;63210;53.370;6.770;2022-12-05T02:10:12;9.63;;;5.57;;
48849;SDS011;63210;53.370;6.770;2022-12-05T02:12:52;11.98;;;6.88;;
48849;SDS011;63210;53.370;6.770;2022-12-05T02:15:42;10.93;;;6.60;;
48849;SDS011;63210;53.370;6.770;2022-12-05T02:21:34;11.27;;;6.38;;
48849;SDS011;63210;53.370;6.770;2022-12-05T02:44:56;14.48;;;6.70;;
48849;SDS011;63210;53.370;6.770;2022-12-05T02:47:28;10.43;;;5.72;;
48849;SDS011;63210;53.370;6.770;2022-12-05T02:50:18;10.75;;;6.25;;
48849;SDS011;63210;53.370;6.770;2022-12-05T02:53:02;8.98;;;6.07;;
48849;SDS011;63210;53.370;6.770;2022-12-05T02:55:46;11.57;;;6.28;;
48849;SDS011;63210;53.370;6.770;2022-12-05T02:58:46;10.00;;;6.13;;
48849;SDS011;63210;53.370;6.770;2022-12-05T03:01:44;7.13;;;4.30;;
48849;SDS011;63210;53.370;6.770;2022-12-05T03:04:45;5.30;;;4.15;;
48849;SDS011;63210;53.370;6.770;2022-12-05T03:10:11;12.68;;;6.75;;
48849;SDS011;63210;53.370;6.770;2022-12-05T03:16:19;12.23;;;5.80;;
48849;SDS011;63210;53.370;6.770;2022-12-05T03:22:07;15.20;;;7.32;;
48849;SDS011;63210;53.370;6.770;2022-12-05T03:27:43;8.13;;;4.90;;
48849;SDS011;63210;53.370;6.770;2022-12-05T03:30:15;11.23;;;5.53;;
48849;SDS011;63210;53.370;6.770;2022-12-05T03:35:44;11.30;;;4.85;;
48849;SDS011;63210;53.370;6.770;2022-12-05T03:41:50;12.98;;;5.55;;
48849;SDS011;63210;53.370;6.770;2022-12-05T03:50:39;10.38;;;5.63;;
48849;SDS011;63210;53.370;6.770;2022-12-05T03:56:08;9.00;;;4.93;;
48849;SDS011;63210;53.370;6.770;2022-12-05T04:06:51;13.20;;;5.97;;
48849;SDS011;63210;53.370;6.770;2022-12-05T04:12:37;13.73;;;7.25;;
48849;SDS011;63210;53.370;6.770;2022-12-05T04:15:27;13.90;;;6.35;;
48849;SDS011;63210;53.370;6.770;2022-12-05T04:18:38;10.52;;;4.57;;
48849;SDS011;63210;53.370;6.770;2022-12-05T04:21:09;10.73;;;5.30;;
48849;SDS011;63210;53.370;6.770;2022-12-05T04:24:30;11.05;;;5.00;;
48849;SDS011;63210;53.370;6.770;2022-12-05T04:27:27;12.23;;;6.50;;
48849;SDS011;63210;53.370;6.770;2022-12-05T04:32:34;10.10;;;5.43;;
48849;SDS011;63210;53.370;6.770;2022-12-05T04:35:21;10.32;;;6.05;;
48849;SDS011;63210;53.370;6.770;2022-12-05T04:43:44;14.95;;;6.32;;
48849;SDS011;63210;53.370;6.770;2022-12-05T04:46:11;14.93;;;7.90;;
48849;SDS011;63210;53.370;6.770;2022-12-05T04:48:53;13.43;;;5.50;;
48849;SDS011;63210;53.370;6.770;2022-12-05T04:51:30;8.07;;;5.05;;
48849;SDS011;63210;53.370;6.770;2022-12-05T04:57:29;12.80;;;6.75;;
48849;SDS011;63210;53.370;6.770;2022-12-05T05:00:12;11.13;;;6.65;;
48849;SDS011;63210;53.370;6.770;2022-12-05T05:05:39;13.57;;;6.72;;
48849;SDS011;63210;53.370;6.770;2022-12-05T05:14:31;8.00;;;4.40;;
48849;SDS011;63210;53.370;6.770;2022-12-05T05:20:00;14.82;;;7.20;;
48849;SDS011;63210;53.370;6.770;2022-12-05T05:22:48;15.43;;;7.80;;
48849;SDS011;63210;53.370;6.770;2022-12-05T05:25:22;10.48;;;6.38;;
48849;SDS011;63210;53.370;6.770;2022-12-05T05:31:30;16.05;;;6.82;;
48849;SDS011;63210;53.370;6.770;2022-12-05T05:37:23;11.38;;;5.40;;
48849;SDS011;63210;53.370;6.770;2022-12-05T05:40:06;13.38;;;6.65;;
48849;SDS011;63210;53.370;6.770;2022-12-05T05:42:45;8.10;;;5.32;;
48849;SDS011;63210;53.370;6.770;2022-12-05T05:45:21;14.70;;;6.20;;
48849;SDS011;63210;53.370;6.770;2022-12-05T05:47:47;12.90;;;6.50;;
48849;SDS011;63210;53.370;6.770;2022-12-05T05:50:31;19.02;;;7.95;;
48849;SDS011;63210;53.370;6.770;2022-12-05T05:53:11;12.23;;;5.40;;
48849;SDS011;63210;53.370;6.770;2022-12-05T05:55:45;18.13;;;6.63;;
48849;SDS011;63210;53.370;6.770;2022-12-05T05:58:28;13.30;;;5.38;;
48849;SDS011;63210;53.370;6.770;2022-12-05T06:01:17;11.00;;;5.07;;
48849;SDS011;63210;53.370;6.770;2022-12-05T06:04:01;13.15;;;5.85;;
48849;SDS011;63210;53.370;6.770;2022-12-05T06:06:32;14.65;;;5.70;;
48849;SDS011;63210;53.370;6.770;2022-12-05T06:09:06;12.80;;;5.85;;
48849;SDS011;63210;53.370;6.770;2022-12-05T06:12:00;12.35;;;5.72;;
48849;SDS011;63210;53.370;6.770;2022-12-05T06:15:09;11.32;;;6.20;;
48849;SDS011;63210;53.370;6.770;2022-12-05T06:17:37;14.70;;;7.35;;
48849;SDS011;63210;53.370;6.770;2022-12-05T06:20:08;17.33;;;7.03;;
48849;SDS011;63210;53.370;6.770;2022-12-05T06:22:49;20.58;;;6.05;;
48849;SDS011;63210;53.370;6.770;2022-12-05T06:28:00;11.90;;;6.30;;
48849;SDS011;63210;53.370;6.770;2022-12-05T06:30:46;9.52;;;4.32;;
48849;SDS011;63210;53.370;6.770;2022-12-05T06:33:33;11.55;;;5.13;;
48849;SDS011;63210;53.370;6.770;2022-12-05T06:36:36;10.82;;;5.38;;
48849;SDS011;63210;53.370;6.770;2022-12-05T06:48:35;14.25;;;5.38;;
48849;SDS011;63210;53.370;6.770;2022-12-05T06:51:07;15.10;;;6.35;;
48849;SDS011;63210;53.370;6.770;2022-12-05T07:24:18;12.55;;;5.97;;
48849;SDS011;63210;53.370;6.770;2022-12-05T07:26:46;14.35;;;5.45;;
48849;SDS011;63210;53.370;6.770;2022-12-05T07:29:26;10.00;;;5.25;;
48849;SDS011;63210;53.370;6.770;2022-12-05T07:31:58;15.85;;;7.15;;
48849;SDS011;63210;53.370;6.770;2022-12-05T07:34:33;14.13;;;6.45;;
48849;SDS011;63210;53.370;6.770;2022-12-05T07:37:22;11.77;;;4.82;;
48849;SDS011;63210;53.370;6.770;2022-12-05T07:40:21;11.73;;;4.88;;
48849;SDS011;63210;53.370;6.770;2022-12-05T07:42:53;7.43;;;5.53;;
48849;SDS011;63210;53.370;6.770;2022-12-05T07:45:32;9.10;;;5.00;;
48849;SDS011;63210;53.370;6.770;2022-12-05T07:48:00;13.20;;;6.30;;
48849;SDS011;63210;53.370;6.770;2022-12-05T07:50:35;13.52;;;6.55;;
48849;SDS011;63210;53.370;6.770;2022-12-05T07:53:12;9.00;;;4.22;;
48849;SDS011;63210;53.370;6.770;2022-12-05T07:56:04;14.30;;;5.80;;
48849;SDS011;63210;53.370;6.770;2022-12-05T07:58:38;12.15;;;5.63;;
48849;SDS011;63210;53.370;6.770;2022-12-05T08:01:48;20.15;;;6.05;;
48849;SDS011;63210;53.370;6.770;2022-12-05T08:04:52;13.10;;;6.82;;
48849;SDS011;63210;53.370;6.770;2022-12-05T08:07:17;16.52;;;6.43;;
48849;SDS011;63210;53.370;6.770;2022-12-05T08:09:42;13.10;;;6.53;;
48849;SDS011;63210;53.370;6.770;2022-12-05T08:12:18;10.82;;;4.65;;
48849;SDS011;63210;53.370;6.770;2022-12-05T08:14:49;11.00;;;4.68;;
48849;SDS011;63210;53.370;6.770;2022-12-05T08:17:33;13.88;;;5.15;;
48849;SDS011;63210;53.370;6.770;2022-12-05T08:20:01;14.60;;;6.63;;
48849;SDS011;63210;53.370;6.770;2022-12-05T08:22:32;11.40;;;5.60;;
48849;SDS011;63210;53.370;6.770;2022-12-05T08:25:03;12.18;;;5.68;;
48849;SDS011;63210;53.370;6.770;2022-12-05T08:27:35;14.57;;;6.80;;
48849;SDS011;63210;53.370;6.770;2022-12-05T08:30:03;13.23;;;5.90;;
48849;SDS011;63210;53.370;6.770;2022-12-05T08:32:32;9.70;;;3.55;;
48849;SDS011;63210;53.370;6.770;2022-12-05T08:35:00;15.45;;;5.78;;
48849;SDS011;63210;53.370;6.770;2022-12-05T08:40:15;10.98;;;5.10;;
48849;SDS011;63210;53.370;6.770;2022-12-05T08:42:40;13.77;;;5.65;;
48849;SDS011;63210;53.370;6.770;2022-12-05T08:45:21;13.48;;;6.35;;
48849;SDS011;63210;53.370;6.770;2022-12-05T08:48:00;15.20;;;6.60;;
48849;SDS011;63210;53.370;6.770;2022-12-05T08:50:28;13.93;;;6.70;;
48849;SDS011;63210;53.370;6.770;2022-12-05T08:52:57;12.90;;;6.93;;
48849;SDS011;63210;53.370;6.770;2022-12-05T08:55:58;12.77;;;6.70;;
48849;SDS011;63210;53.370;6.770;2022-12-05T08:58:41;19.40;;;7.90;;
48849;SDS011;63210;53.370;6.770;2022-12-05T09:03:48;16.95;;;7.95;;
48849;SDS011;63210;53.370;6.770;2022-12-05T09:06:32;14.45;;;6.20;;
48849;SDS011;63210;53.370;6.770;2022-12-05T09:09:04;13.95;;;6.10;;
48849;SDS011;63210;53.370;6.770;2022-12-05T09:11:36;18.95;;;8.50;;
48849;SDS011;63210;53.370;6.770;2022-12-05T09:14:07;16.08;;;7.30;;
48849;SDS011;63210;53.370;6.770;2022-12-05T09:16:40;14.35;;;7.78;;
48849;SDS011;63210;53.370;6.770;2022-12-05T09:19:16;16.52;;;7.05;;
48849;SDS011;63210;53.370;6.770;2022-12-05T09:21:45;11.45;;;7.10;;
48849;SDS011;63210;53.370;6.770;2022-12-05T09:24:19;18.77;;;7.82;;
48849;SDS011;63210;53.370;6.770;2022-12-05T09:26:50;13.98;;;7.63;;
48849;SDS011;63210;53.370;6.770;2022-12-05T09:29:31;17.27;;;7.25;;
48849;SDS011;63210;53.370;6.770;2022-12-05T09:31:59;17.23;;;8.15;;
48849;SDS011;63210;53.370;6.770;2022-12-05T09:34:43;19.58;;;8.07;;
48849;SDS011;63210;53.370;6.770;2022-12-05T09:37:22;15.02;;;7.85;;
48849;SDS011;63210;53.370;6.770;2022-12-05T09:40:16;14.07;;;7.20;;
48849;SDS011;63210;53.370;6.770;2022-12-05T09:51:29;15.32;;;6.95;;
48849;SDS011;63210;53.370;6.770;2022-12-05T09:54:01;14.25;;;7.22;;
48849;SDS011;63210;53.370;6.770;2022-12-05T09:56:31;17.35;;;7.70;;
48849;SDS011;63210;53.370;6.770;2022-12-05T09:59:11;14.95;;;7.38;;
48849;SDS011;63210;53.370;6.770;2022-12-05T10:17:52;10.50;;;4.10;;
48849;SDS011;63210;53.370;6.770;2022-12-05T10:20:24;14.55;;;6.57;;
48849;SDS011;63210;53.370;6.770;2022-12-05T10:23:02;18.67;;;7.38;;
48849;SDS011;63210;53.370;6.770;2022-12-05T10:25:45;15.00;;;6.45;;
48849;SDS011;63210;53.370;6.770;2022-12-05T10:31:16;11.38;;;6.22;;
48849;SDS011;63210;53.370;6.770;2022-12-05T10:34:01;13.45;;;7.13;;
48849;SDS011;63210;53.370;6.770;2022-12-05T10:36:36;12.77;;;5.45;;
48849;SDS011;63210;53.370;6.770;2022-12-05T10:39:08;15.77;;;6.18;;
48849;SDS011;63210;53.370;6.770;2022-12-05T10:41:36;15.07;;;6.57;;
48849;SDS011;63210;53.370;6.770;2022-12-05T10:44:04;11.75;;;6.63;;
48849;SDS011;63210;53.370;6.770;2022-12-05T10:46:33;15.98;;;6.45;;
48849;SDS011;63210;53.370;6.770;2022-12-05T10:49:15;11.80;;;6.30;;
48849;SDS011;63210;53.370;6.770;2022-12-05T10:51:41;11.20;;;5.80;;
48849;SDS011;63210;53.370;6.770;2022-12-05T10:54:21;10.95;;;5.53;;
48849;SDS011;63210;53.370;6.770;2022-12-05T10:59:45;9.52;;;5.40;;
48849;SDS011;63210;53.370;6.770;2022-12-05T11:05:17;14.18;;;4.80;;
48849;SDS011;63210;53.370;6.770;2022-12-05T11:07:56;11.07;;;3.90;;
48849;SDS011;63210;53.370;6.770;2022-12-05T11:10:31;10.88;;;5.25;;
48849;SDS011;63210;53.370;6.770;2022-12-05T11:13:22;6.95;;;3.95;;
48849;SDS011;63210;53.370;6.770;2022-12-05T11:15:58;12.32;;;4.68;;
48849;SDS011;63210;53.370;6.770;2022-12-05T11:20:49;8.40;;;4.55;;
48849;SDS011;63210;53.370;6.770;2022-12-05T11:23:24;7.40;;;4.60;;
48849;SDS011;63210;53.370;6.770;2022-12-05T11:25:49;9.82;;;5.00;;
48849;SDS011;63210;53.370;6.770;2022-12-05T11:33:25;14.27;;;5.65;;
48849;SDS011;63210;53.370;6.770;2022-12-05T11:39:03;12.10;;;5.07;;
48849;SDS011;63210;53.370;6.770;2022-12-05T12:00:06;10.13;;;4.20;;
48849;SDS011;63210;53.370;6.770;2022-12-05T12:16:43;11.30;;;4.32;;
48849;SDS011;63210;53.370;6.770;2022-12-05T12:19:14;6.50;;;3.60;;
48849;SDS011;63210;53.370;6.770;2022-12-05T12:30:11;6.60;;;2.63;;
48849;SDS011;63210;53.370;6.770;2022-12-05T12:33:03;9.35;;;3.90;;
48849;SDS011;63210;53.370;6.770;2022-12-05T12:35:44;7.25;;;3.65;;
48849;SDS011;63210;53.370;6.770;2022-12-05T12:41:07;7.85;;;3.15;;
48849;SDS011;63210;53.370;6.770;2022-12-05T12:48:39;9.45;;;3.50;;
48849;SDS011;63210;53.370;6.770;2022-12-05T12:51:05;8.80;;;3.60;;
48849;SDS011;63210;53.370;6.770;2022-12-05T13:01:54;9.23;;;3.47;;
48849;SDS011;63210;53.370;6.770;2022-12-05T13:04:31;5.97;;;3.03;;
48849;SDS011;63210;53.370;6.770;2022-12-05T13:07:25;7.75;;;2.75;;
48849;SDS011;63210;53.370;6.770;2022-12-05T13:12:47;9.30;;;3.47;;
48849;SDS011;63210;53.370;6.770;2022-12-05T13:16:20;6.40;;;3.00;;
48849;SDS011;63210;53.370;6.770;2022-12-05T13:18:32;7.78;;;3.10;;
48849;SDS011;63210;53.370;6.770;2022-12-05T13:21:23;7.15;;;3.22;;
48849;SDS011;63210;53.370;6.770;2022-12-05T13:23:49;7.53;;;3.08;;
48849;SDS011;63210;53.370;6.770;2022-12-05T13:26:21;10.82;;;3.38;;
48849;SDS011;63210;53.370;6.770;2022-12-05T13:29:13;8.20;;;3.38;;
48849;SDS011;63210;53.370;6.770;2022-12-05T13:37:08;8.80;;;3.72;;
48849;SDS011;63210;53.370;6.770;2022-12-05T13:42:39;9.07;;;3.38;;
48849;SDS011;63210;53.370;6.770;2022-12-05T13:45:16;8.80;;;3.22;;
48849;SDS011;63210;53.370;6.770;2022-12-05T13:51:42;10.00;;;3.58;;
48849;SDS011;63210;53.370;6.770;2022-12-05T14:03:15;12.73;;;4.43;;
48849;SDS011;63210;53.370;6.770;2022-12-05T14:06:24;8.55;;;3.85;;
48849;SDS011;63210;53.370;6.770;2022-12-05T14:11:14;6.57;;;4.07;;
48849;SDS011;63210;53.370;6.770;2022-12-05T14:13:53;12.13;;;4.38;;
48849;SDS011;63210;53.370;6.770;2022-12-05T14:22:15;8.88;;;3.83;;
48849;SDS011;63210;53.370;6.770;2022-12-05T14:24:56;10.45;;;3.90;;
48849;SDS011;63210;53.370;6.770;2022-12-05T14:30:21;10.90;;;4.45;;
48849;SDS011;63210;53.370;6.770;2022-12-05T14:32:47;12.13;;;4.82;;
48849;SDS011;63210;53.370;6.770;2022-12-05T14:40:45;10.15;;;3.72;;
48849;SDS011;63210;53.370;6.770;2022-12-05T14:43:27;6.05;;;2.90;;
48849;SDS011;63210;53.370;6.770;2022-12-05T14:48:55;8.10;;;3.47;;
48849;SDS011;63210;53.370;6.770;2022-12-05T14:54:34;10.25;;;4.10;;
48849;SDS011;63210;53.370;6.770;2022-12-05T15:00:00;10.13;;;4.18;;
48849;SDS011;63210;53.370;6.770;2022-12-05T15:02:59;9.20;;;3.63;;
48849;SDS011;63210;53.370;6.770;2022-12-05T15:05:32;13.55;;;3.80;;
48849;SDS011;63210;53.370;6.770;2022-12-05T15:08:13;8.02;;;3.50;;
48849;SDS011;63210;53.370;6.770;2022-12-05T15:10:42;10.00;;;3.80;;
48849;SDS011;63210;53.370;6.770;2022-12-05T15:13:20;19.20;;;5.57;;
48849;SDS011;63210;53.370;6.770;2022-12-05T15:16:40;8.38;;;3.85;;
48849;SDS011;63210;53.370;6.770;2022-12-05T15:18:49;12.52;;;4.65;;
48849;SDS011;63210;53.370;6.770;2022-12-05T15:24:19;8.82;;;3.30;;
48849;SDS011;63210;53.370;6.770;2022-12-05T15:26:54;9.35;;;4.32;;
48849;SDS011;63210;53.370;6.770;2022-12-05T15:29:51;13.65;;;4.13;;
48849;SDS011;63210;53.370;6.770;2022-12-05T15:32:31;11.90;;;4.78;;
48849;SDS011;63210;53.370;6.770;2022-12-05T15:40:43;5.30;;;2.85;;
48849;SDS011;63210;53.370;6.770;2022-12-05T15:42:58;7.68;;;4.03;;
48849;SDS011;63210;53.370;6.770;2022-12-05T15:45:32;15.73;;;8.45;;
48849;SDS011;63210;53.370;6.770;2022-12-05T15:48:24;74.25;;;23.10;;
48849;SDS011;63210;53.370;6.770;2022-12-05T15:51:07;69.70;;;25.08;;
48849;SDS011;63210;53.370;6.770;2022-12-05T15:59:46;25.15;;;10.55;;
48849;SDS011;63210;53.370;6.770;2022-12-05T16:03:06;22.27;;;7.53;;
48849;SDS011;63210;53.370;6.770;2022-12-05T16:08:43;8.35;;;4.63;;
48849;SDS011;63210;53.370;6.770;2022-12-05T16:14:23;8.40;;;4.13;;
48849;SDS011;63210;53.370;6.770;2022-12-05T16:16:53;7.90;;;3.40;;
48849;SDS011;63210;53.370;6.770;2022-12-05T16:19:56;11.48;;;3.65;;
48849;SDS011;63210;53.370;6.770;2022-12-05T16:25:37;8.00;;;3.63;;
48849;SDS011;63210;53.370;6.770;2022-12-05T16:28:15;6.30;;;2.90;;
48849;SDS011;63210;53.370;6.770;2022-12-05T16:31:02;6.00;;;2.50;;
48849;SDS011;63210;53.370;6.770;2022-12-05T16:33:35;47.20;;;18.17;;
48849;SDS011;63210;53.370;6.770;2022-12-05T16:36:08;37.70;;;15.68;;
48849;SDS011;63210;53.370;6.770;2022-12-05T16:38:33;14.90;;;7.07;;
48849;SDS011;63210;53.370;6.770;2022-12-05T16:41:09;16.85;;;7.70;;
48849;SDS011;63210;53.370;6.770;2022-12-05T16:43:43;11.25;;;5.97;;
48849;SDS011;63210;53.370;6.770;2022-12-05T16:51:46;11.75;;;3.70;;
48849;SDS011;63210;53.370;6.770;2022-12-05T16:54:20;8.30;;;4.20;;
48849;SDS011;63210;53.370;6.770;2022-12-05T16:59:36;4.75;;;2.75;;
48849;SDS011;63210;53.370;6.770;2022-12-05T17:02:04;5.75;;;3.35;;
48849;SDS011;63210;53.370;6.770;2022-12-05T17:04:48;8.00;;;3.47;;
48849;SDS011;63210;53.370;6.770;2022-12-05T17:07:17;11.65;;;3.22;;
48849;SDS011;63210;53.370;6.770;2022-12-05T17:10:00;6.22;;;2.67;;
48849;SDS011;63210;53.370;6.770;2022-12-05T17:12:37;11.82;;;3.30;;
48849;SDS011;63210;53.370;6.770;2022-12-05T17:15:05;7.43;;;3.05;;
48849;SDS011;63210;53.370;6.770;2022-12-05T17:17:33;5.15;;;3.40;;
48849;SDS011;63210;53.370;6.770;2022-12-05T17:20:03;4.85;;;3.55;;
48849;SDS011;63210;53.370;6.770;2022-12-05T17:22:35;9.27;;;4.60;;
48849;SDS011;63210;53.370;6.770;2022-12-05T17:25:03;7.07;;;3.97;;
48849;SDS011;63210;53.370;6.770;2022-12-05T17:27:38;7.43;;;4.47;;
48849;SDS011;63210;53.370;6.770;2022-12-05T17:33:16;7.53;;;4.20;;
48849;SDS011;63210;53.370;6.770;2022-12-05T17:35:43;7.72;;;3.75;;
48849;SDS011;63210;53.370;6.770;2022-12-05T17:38:12;11.50;;;5.22;;
48849;SDS011;63210;53.370;6.770;2022-12-05T17:40:50;8.00;;;3.85;;
48849;SDS011;63210;53.370;6.770;2022-12-05T17:46:21;11.88;;;4.43;;
48849;SDS011;63210;53.370;6.770;2022-12-05T17:51:42;6.20;;;3.58;;
48849;SDS011;63210;53.370;6.770;2022-12-05T17:54:17;9.85;;;4.18;;
48849;SDS011;63210;53.370;6.770;2022-12-05T17:56:45;6.03;;;3.13;;
48849;SDS011;63210;53.370;6.770;2022-12-05T17:59:16;12.55;;;4.13;;
48849;SDS011;63210;53.370;6.770;2022-12-05T18:01:58;7.53;;;4.18;;
48849;SDS011;63210;53.370;6.770;2022-12-05T18:04:31;13.27;;;4.53;;
48849;SDS011;63210;53.370;6.770;2022-12-05T18:07:02;10.07;;;4.55;;
48849;SDS011;63210;53.370;6.770;2022-12-05T18:09:43;11.02;;;4.85;;
48849;SDS011;63210;53.370;6.770;2022-12-05T18:12:11;11.60;;;5.15;;
48849;SDS011;63210;53.370;6.770;2022-12-05T18:14:53;12.02;;;4.65;;
48849;SDS011;63210;53.370;6.770;2022-12-05T18:17:37;8.82;;;3.80;;
48849;SDS011;63210;53.370;6.770;2022-12-05T18:20:26;8.10;;;3.97;;
48849;SDS011;63210;53.370;6.770;2022-12-05T18:23:00;11.13;;;3.83;;
48849;SDS011;63210;53.370;6.770;2022-12-05T18:25:29;11.60;;;3.72;;
48849;SDS011;63210;53.370;6.770;2022-12-05T18:28:03;6.72;;;3.53;;
48849;SDS011;63210;53.370;6.770;2022-12-05T18:30:34;7.20;;;3.88;;
48849;SDS011;63210;53.370;6.770;2022-12-05T18:33:06;8.82;;;3.80;;
48849;SDS011;63210;53.370;6.770;2022-12-05T18:35:46;8.00;;;3.72;;
48849;SDS011;63210;53.370;6.770;2022-12-05T18:38:13;5.22;;;2.58;;
48849;SDS011;63210;53.370;6.770;2022-12-05T18:40:49;7.72;;;3.60;;
48849;SDS011;63210;53.370;6.770;2022-12-05T18:43:14;8.77;;;2.97;;
48849;SDS011;63210;53.370;6.770;2022-12-05T18:45:40;11.68;;;3.75;;
48849;SDS011;63210;53.370;6.770;2022-12-05T18:48:08;10.10;;;4.05;;
48849;SDS011;63210;53.370;6.770;2022-12-05T18:50:36;7.38;;;2.75;;
48849;SDS011;63210;53.370;6.770;2022-12-05T18:53:12;9.10;;;4.05;;
48849;SDS011;63210;53.370;6.770;2022-12-05T18:55:42;8.32;;;3.40;;
48849;SDS011;63210;53.370;6.770;2022-12-05T18:58:14;8.35;;;3.05;;
48849;SDS011;63210;53.370;6.770;2022-12-05T19:00:39;8.70;;;3.10;;
48849;SDS011;63210;53.370;6.770;2022-12-05T19:03:07;9.45;;;3.30;;
48849;SDS011;63210;53.370;6.770;2022-12-05T19:05:48;10.30;;;3.55;;
48849;SDS011;63210;53.370;6.770;2022-12-05T19:08:22;9.55;;;3.10;;
48849;SDS011;63210;53.370;6.770;2022-12-05T19:11:06;13.15;;;3.45;;
48849;SDS011;63210;53.370;6.770;2022-12-05T19:13:43;8.40;;;2.72;;
48849;SDS011;63210;53.370;6.770;2022-12-05T19:16:11;8.85;;;3.00;;
48849;SDS011;63210;53.370;6.770;2022-12-05T19:19:04;7.47;;;3.42;;
48849;SDS011;63210;53.370;6.770;2022-12-05T19:21:38;9.23;;;3.30;;
48849;SDS011;63210;53.370;6.770;2022-12-05T19:24:23;10.05;;;3.58;;
48849;SDS011;63210;53.370;6.770;2022-12-05T19:27:06;12.32;;;3.92;;
48849;SDS011;63210;53.370;6.770;2022-12-05T19:32:38;6.75;;;2.65;;
48849;SDS011;63210;53.370;6.770;2022-12-05T19:35:15;12.27;;;3.08;;
48849;SDS011;63210;53.370;6.770;2022-12-05T19:38:21;13.88;;;3.63;;
48849;SDS011;63210;53.370;6.770;2022-12-05T19:41:00;5.07;;;2.72;;
48849;SDS011;63210;53.370;6.770;2022-12-05T19:46:17;12.30;;;3.08;;
48849;SDS011;63210;53.370;6.770;2022-12-05T19:49:13;6.80;;;2.95;;
48849;SDS011;63210;53.370;6.770;2022-12-05T19:52:07;9.27;;;2.40;;
48849;SDS011;63210;53.370;6.770;2022-12-05T19:54:59;8.20;;;2.65;;
48849;SDS011;63210;53.370;6.770;2022-12-05T20:00:23;14.75;;;2.90;;
48849;SDS011;63210;53.370;6.770;2022-12-05T20:03:11;14.75;;;2.75;;
48849;SDS011;63210;53.370;6.770;2022-12-05T20:06:08;10.20;;;4.55;;
48849;SDS011;63210;53.370;6.770;2022-12-05T20:08:50;4.85;;;2.67;;
48849;SDS011;63210;53.370;6.770;2022-12-05T20:11:31;9.93;;;2.72;;
48849;SDS011;63210;53.370;6.770;2022-12-05T20:14:22;7.45;;;2.75;;
48849;SDS011;63210;53.370;6.770;2022-12-05T20:17:21;10.18;;;2.63;;
48849;SDS011;63210;53.370;6.770;2022-12-05T20:22:36;9.10;;;3.17;;
48849;SDS011;63210;53.370;6.770;2022-12-05T20:25:19;7.70;;;3.10;;
48849;SDS011;63210;53.370;6.770;2022-12-05T20:28:05;9.80;;;3.20;;
48849;SDS011;63210;53.370;6.770;2022-12-05T20:30:32;10.52;;;3.28;;
48849;SDS011;63210;53.370;6.770;2022-12-05T20:33:07;10.15;;;3.65;;
48849;SDS011;63210;53.370;6.770;2022-12-05T20:36:00;6.35;;;2.78;;
48849;SDS011;63210;53.370;6.770;2022-12-05T20:39:04;10.35;;;3.00;;
48849;SDS011;63210;53.370;6.770;2022-12-05T20:45:07;10.10;;;3.15;;
48849;SDS011;63210;53.370;6.770;2022-12-05T20:47:47;6.53;;;2.90;;
48849;SDS011;63210;53.370;6.770;2022-12-05T20:50:33;7.45;;;3.50;;
48849;SDS011;63210;53.370;6.770;2022-12-05T20:53:10;7.53;;;3.10;;
48849;SDS011;63210;53.370;6.770;2022-12-05T20:56:11;9.48;;;2.92;;
48849;SDS011;63210;53.370;6.770;2022-12-05T20:58:49;5.90;;;2.50;;
48849;SDS011;63210;53.370;6.770;2022-12-05T21:01:26;6.20;;;2.40;;
48849;SDS011;63210;53.370;6.770;2022-12-05T21:04:01;10.13;;;3.10;;
48849;SDS011;63210;53.370;6.770;2022-12-05T21:09:02;9.87;;;2.70;;
48849;SDS011;63210;53.370;6.770;2022-12-05T21:11:31;5.85;;;2.58;;
48849;SDS011;63210;53.370;6.770;2022-12-05T21:13:57;5.07;;;2.22;;
48849;SDS011;63210;53.370;6.770;2022-12-05T21:16:35;4.20;;;2.20;;
48849;SDS011;63210;53.370;6.770;2022-12-05T21:19:09;5.53;;;2.20;;
48849;SDS011;63210;53.370;6.770;2022-12-05T21:21:59;11.60;;;3.60;;
48849;SDS011;63210;53.370;6.770;2022-12-05T21:27:25;11.10;;;2.40;;
48849;SDS011;63210;53.370;6.770;2022-12-05T21:29:59;6.78;;;2.20;;
48849;SDS011;63210;53.370;6.770;2022-12-05T21:32:27;9.55;;;3.00;;
48849;SDS011;63210;53.370;6.770;2022-12-05T21:34:58;7.03;;;2.50;;
48849;SDS011;63210;53.370;6.770;2022-12-05T21:37:34;6.50;;;2.65;;
48849;SDS011;63210;53.370;6.770;2022-12-05T21:40:10;7.78;;;2.55;;
48849;SDS011;63210;53.370;6.770;2022-12-05T21:42:43;4.63;;;2.67;;
48849;SDS011;63210;53.370;6.770;2022-12-05T21:45:24;8.18;;;2.40;;
48849;SDS011;63210;53.370;6.770;2022-12-05T21:48:16;12.80;;;2.95;;
48849;SDS011;63210;53.370;6.770;2022-12-05T21:53:15;12.98;;;3.65;;
48849;SDS011;63210;53.370;6.770;2022-12-05T21:55:44;10.75;;;2.90;;
48849;SDS011;63210;53.370;6.770;2022-12-05T21:58:12;9.00;;;2.90;;
48849;SDS011;63210;53.370;6.770;2022-12-05T22:00:40;6.57;;;2.70;;
48849;SDS011;63210;53.370;6.770;2022-12-05T22:03:30;7.97;;;2.67;;
48849;SDS011;63210;53.370;6.770;2022-12-05T22:06:04;3.15;;;2.33;;
48849;SDS011;63210;53.370;6.770;2022-12-05T22:08:45;6.97;;;2.22;;
48849;SDS011;63210;53.370;6.770;2022-12-05T22:11:17;4.80;;;2.22;;